sensor_id;sensor_type;location;lat;lon;timestamp;pressure;altitude;pressure_sealevel;temperature;humidity
75051;BME280;63628;47.656;11.310;2022-09-29T00:00:59;93388.81;;;11.48;76.72
75051;BME280;63628;47.656;11.310;2022-09-29T00:03:27;93383.78;;;11.47;76.89
75051;BME280;63628;47.656;11.310;2022-09-29T00:05:55;93380.88;;;11.43;77.42
75051;BME280;63628;47.656;11.310;2022-09-29T00:08:25;93381.13;;;11.47;77.28
75051;BME280;63628;47.656;11.310;2022-09-29T00:10:52;93390.16;;;11.46;77.23
75051;BME280;63628;47.656;11.310;2022-09-29T00:13:19;93388.81;;;11.48;76.97
75051;BME280;63628;47.656;11.310;2022-09-29T00:15:54;93371.63;;;11.40;76.56
75051;BME280;63628;47.656;11.310;2022-09-29T00:18:21;93369.78;;;11.41;76.50
75051;BME280;63628;47.656;11.310;2022-09-29T00:21:07;93376.66;;;11.42;77.15
75051;BME280;63628;47.656;11.310;2022-09-29T00:23:35;93380.34;;;11.46;76.57
75051;BME280;63628;47.656;11.310;2022-09-29T00:28:38;93380.63;;;11.44;76.98
75051;BME280;63628;47.656;11.310;2022-09-29T00:31:06;93362.88;;;11.40;76.94
75051;BME280;63628;47.656;11.310;2022-09-29T00:33:35;93375.88;;;11.41;76.65
75051;BME280;63628;47.656;11.310;2022-09-29T00:36:07;93376.69;;;11.37;77.06
75051;BME280;63628;47.656;11.310;2022-09-29T00:38:35;93367.66;;;11.38;77.38
75051;BME280;63628;47.656;11.310;2022-09-29T00:41:02;93363.13;;;11.43;76.89
75051;BME280;63628;47.656;11.310;2022-09-29T00:46:11;93346.78;;;11.31;77.04
75051;BME280;63628;47.656;11.310;2022-09-29T00:48:39;93343.59;;;11.29;76.58
75051;BME280;63628;47.656;11.310;2022-09-29T00:51:06;93353.38;;;11.34;77.31
75051;BME280;63628;47.656;11.310;2022-09-29T00:53:33;93355.25;;;11.33;77.45
75051;BME280;63628;47.656;11.310;2022-09-29T00:56:20;93362.41;;;11.33;77.05
75051;BME280;63628;47.656;11.310;2022-09-29T00:59:00;93351.31;;;11.26;77.24
75051;BME280;63628;47.656;11.310;2022-09-29T01:01:30;93360.50;;;11.38;76.65
75051;BME280;63628;47.656;11.310;2022-09-29T01:04:02;93359.22;;;11.31;76.75
75051;BME280;63628;47.656;11.310;2022-09-29T01:06:35;93368.75;;;11.32;77.18
75051;BME280;63628;47.656;11.310;2022-09-29T01:09:05;93357.63;;;11.35;76.64
75051;BME280;63628;47.656;11.310;2022-09-29T01:11:33;93352.84;;;11.37;74.42
75051;BME280;63628;47.656;11.310;2022-09-29T01:14:03;93349.91;;;11.38;76.61
75051;BME280;63628;47.656;11.310;2022-09-29T01:16:33;93351.81;;;11.33;76.55
75051;BME280;63628;47.656;11.310;2022-09-29T01:19:05;93336.47;;;11.25;77.08
75051;BME280;63628;47.656;11.310;2022-09-29T01:21:43;93353.41;;;11.29;76.85
75051;BME280;63628;47.656;11.310;2022-09-29T01:27:06;93356.56;;;11.36;76.54
75051;BME280;63628;47.656;11.310;2022-09-29T01:33:06;93336.50;;;11.20;76.32
75051;BME280;63628;47.656;11.310;2022-09-29T01:39:01;93343.38;;;11.26;76.61
75051;BME280;63628;47.656;11.310;2022-09-29T01:41:35;93334.94;;;11.19;77.07
75051;BME280;63628;47.656;11.310;2022-09-29T01:44:23;93348.13;;;11.24;76.69
75051;BME280;63628;47.656;11.310;2022-09-29T01:46:56;93349.19;;;11.23;77.18
75051;BME280;63628;47.656;11.310;2022-09-29T01:49:27;93337.06;;;11.17;77.01
75051;BME280;63628;47.656;11.310;2022-09-29T01:52:05;93330.16;;;11.21;76.62
75051;BME280;63628;47.656;11.310;2022-09-29T01:54:54;93353.44;;;11.24;76.89
75051;BME280;63628;47.656;11.310;2022-09-29T02:00:12;93348.94;;;11.24;76.78
75051;BME280;63628;47.656;11.310;2022-09-29T02:02:50;93353.72;;;11.22;76.73
75051;BME280;63628;47.656;11.310;2022-09-29T02:05:28;93347.41;;;11.13;76.87
75051;BME280;63628;47.656;11.310;2022-09-29T02:08:09;93354.78;;;11.16;77.32
75051;BME280;63628;47.656;11.310;2022-09-29T02:10:48;93357.41;;;11.21;77.10
75051;BME280;63628;47.656;11.310;2022-09-29T02:13:17;93355.84;;;11.20;76.54
75051;BME280;63628;47.656;11.310;2022-09-29T02:15:47;93350.53;;;11.20;76.50
75051;BME280;63628;47.656;11.310;2022-09-29T02:18:22;93350.03;;;11.18;73.32
75051;BME280;63628;47.656;11.310;2022-09-29T02:20:49;93359.06;;;11.02;76.93
75051;BME280;63628;47.656;11.310;2022-09-29T02:23:16;93358.53;;;11.10;76.49
75051;BME280;63628;47.656;11.310;2022-09-29T02:25:45;93343.19;;;11.07;76.47
75051;BME280;63628;47.656;11.310;2022-09-29T02:28:13;93356.66;;;11.16;76.50
75051;BME280;63628;47.656;11.310;2022-09-29T02:30:40;93347.41;;;11.13;76.38
75051;BME280;63628;47.656;11.310;2022-09-29T02:33:18;93356.09;;;11.19;75.94
75051;BME280;63628;47.656;11.310;2022-09-29T02:35:52;93363.53;;;11.17;76.32
75051;BME280;63628;47.656;11.310;2022-09-29T02:38:34;93352.41;;;11.20;76.34
75051;BME280;63628;47.656;11.310;2022-09-29T02:41:40;93349.75;;;11.20;76.44
75051;BME280;63628;47.656;11.310;2022-09-29T02:44:08;93348.72;;;11.10;76.43
75051;BME280;63628;47.656;11.310;2022-09-29T02:47:07;93329.94;;;11.07;76.56
75051;BME280;63628;47.656;11.310;2022-09-29T02:49:56;93326.22;;;11.03;76.58
75051;BME280;63628;47.656;11.310;2022-09-29T02:52:55;93342.63;;;11.10;76.35
75051;BME280;63628;47.656;11.310;2022-09-29T02:55:29;93347.69;;;11.06;76.58
75051;BME280;63628;47.656;11.310;2022-09-29T02:58:14;93347.94;;;11.10;76.03
75051;BME280;63628;47.656;11.310;2022-09-29T03:00:43;93343.94;;;11.13;76.15
75051;BME280;63628;47.656;11.310;2022-09-29T03:03:10;93331.53;;;11.03;76.73
75051;BME280;63628;47.656;11.310;2022-09-29T03:05:37;93345.56;;;11.08;76.68
75051;BME280;63628;47.656;11.310;2022-09-29T03:08:04;93339.47;;;11.08;76.68
75051;BME280;63628;47.656;11.310;2022-09-29T03:10:30;93339.75;;;11.06;76.85
75051;BME280;63628;47.656;11.310;2022-09-29T03:12:57;93342.09;;;11.03;76.52
75051;BME280;63628;47.656;11.310;2022-09-29T03:15:23;93336.03;;;11.02;76.56
75051;BME280;63628;47.656;11.310;2022-09-29T03:17:54;93340.25;;;11.03;76.28
75051;BME280;63628;47.656;11.310;2022-09-29T03:20:22;93331.25;;;11.04;77.06
75051;BME280;63628;47.656;11.310;2022-09-29T03:22:48;93319.88;;;11.04;76.41
75051;BME280;63628;47.656;11.310;2022-09-29T03:25:15;93329.94;;;11.02;76.95
75051;BME280;63628;47.656;11.310;2022-09-29T03:27:42;93319.91;;;10.94;76.66
75051;BME280;63628;47.656;11.310;2022-09-29T03:30:11;93329.16;;;11.06;75.97
75051;BME280;63628;47.656;11.310;2022-09-29T03:32:37;93317.25;;;10.99;76.82
75051;BME280;63628;47.656;11.310;2022-09-29T03:35:04;93333.66;;;11.06;76.40
75051;BME280;63628;47.656;11.310;2022-09-29T03:37:31;93324.66;;;11.02;75.94
75051;BME280;63628;47.656;11.310;2022-09-29T03:39:57;93325.44;;;11.07;76.10
75051;BME280;63628;47.656;11.310;2022-09-29T03:42:23;93334.69;;;11.05;76.28
75051;BME280;63628;47.656;11.310;2022-09-29T03:44:50;93338.66;;;11.02;76.02
75051;BME280;63628;47.656;11.310;2022-09-29T03:47:16;93330.75;;;10.97;76.88
75051;BME280;63628;47.656;11.310;2022-09-29T03:49:43;93341.59;;;10.96;76.89
75051;BME280;63628;47.656;11.310;2022-09-29T03:52:09;93340.28;;;10.93;76.86
75051;BME280;63628;47.656;11.310;2022-09-29T03:54:36;93340.81;;;10.95;76.65
75051;BME280;63628;47.656;11.310;2022-09-29T03:57:02;93335.81;;;10.89;76.43
75051;BME280;63628;47.656;11.310;2022-09-29T03:59:29;93349.81;;;10.99;76.04
75051;BME280;63628;47.656;11.310;2022-09-29T04:01:55;93339.75;;;10.96;76.46
75051;BME280;63628;47.656;11.310;2022-09-29T04:04:22;93330.25;;;10.90;77.00
75051;BME280;63628;47.656;11.310;2022-09-29T04:06:48;93337.91;;;10.97;76.67
75051;BME280;63628;47.656;11.310;2022-09-29T04:09:15;93343.97;;;10.97;76.59
75051;BME280;63628;47.656;11.310;2022-09-29T04:11:41;93338.72;;;10.92;76.96
75051;BME280;63628;47.656;11.310;2022-09-29T04:14:08;93338.72;;;10.92;76.77
75051;BME280;63628;47.656;11.310;2022-09-29T04:16:34;93343.72;;;10.94;76.87
75051;BME280;63628;47.656;11.310;2022-09-29T04:19:01;93343.47;;;10.95;76.58
75051;BME280;63628;47.656;11.310;2022-09-29T04:21:28;93337.94;;;10.87;77.14
75051;BME280;63628;47.656;11.310;2022-09-29T04:23:54;93339.78;;;10.91;76.34
75051;BME280;63628;47.656;11.310;2022-09-29T04:26:21;93337.41;;;10.90;76.79
75051;BME280;63628;47.656;11.310;2022-09-29T04:28:47;93332.91;;;10.90;76.42
75051;BME280;63628;47.656;11.310;2022-09-29T04:31:14;93327.63;;;10.85;74.50
75051;BME280;63628;47.656;11.310;2022-09-29T04:33:40;93333.41;;;10.92;76.61
75051;BME280;63628;47.656;11.310;2022-09-29T04:36:07;93319.94;;;10.89;76.45
75051;BME280;63628;47.656;11.310;2022-09-29T04:38:33;93322.06;;;10.87;77.42
75051;BME280;63628;47.656;11.310;2022-09-29T04:41:00;93322.31;;;10.90;76.51
75051;BME280;63628;47.656;11.310;2022-09-29T04:43:27;93319.66;;;10.90;76.64
75051;BME280;63628;47.656;11.310;2022-09-29T04:46:00;93319.13;;;10.88;76.45
75051;BME280;63628;47.656;11.310;2022-09-29T04:48:27;93327.34;;;10.87;77.19
75051;BME280;63628;47.656;11.310;2022-09-29T04:51:00;93319.69;;;10.80;76.78
75051;BME280;63628;47.656;11.310;2022-09-29T04:53:27;93330.53;;;10.84;77.23
75051;BME280;63628;47.656;11.310;2022-09-29T04:55:53;93318.13;;;10.79;77.11
75051;BME280;63628;47.656;11.310;2022-09-29T04:58:20;93322.56;;;10.89;76.76
75051;BME280;63628;47.656;11.310;2022-09-29T05:00:46;93315.44;;;10.89;76.67
75051;BME280;63628;47.656;11.310;2022-09-29T05:03:13;93317.03;;;10.85;77.25
75051;BME280;63628;47.656;11.310;2022-09-29T05:05:39;93315.19;;;10.80;76.49
75051;BME280;63628;47.656;11.310;2022-09-29T05:08:06;93313.88;;;10.78;76.88
75051;BME280;63628;47.656;11.310;2022-09-29T05:10:32;93307.25;;;10.80;77.27
75051;BME280;63628;47.656;11.310;2022-09-29T05:12:59;93307.78;;;10.83;76.59
75051;BME280;63628;47.656;11.310;2022-09-29T05:15:25;93315.19;;;10.86;76.38
75051;BME280;63628;47.656;11.310;2022-09-29T05:17:52;93305.94;;;10.83;76.65
75051;BME280;63628;47.656;11.310;2022-09-29T05:20:18;93306.19;;;10.82;77.24
75051;BME280;63628;47.656;11.310;2022-09-29T05:22:45;93308.59;;;10.78;76.78
75051;BME280;63628;47.656;11.310;2022-09-29T05:25:11;93310.97;;;10.79;77.46
75051;BME280;63628;47.656;11.310;2022-09-29T05:27:38;93299.56;;;10.84;76.90
75051;BME280;63628;47.656;11.310;2022-09-29T05:30:04;93293.75;;;10.82;76.30
75051;BME280;63628;47.656;11.310;2022-09-29T05:32:31;93305.69;;;10.79;77.20
75051;BME280;63628;47.656;11.310;2022-09-29T05:34:58;93301.19;;;10.80;76.47
75051;BME280;63628;47.656;11.310;2022-09-29T05:37:24;93296.94;;;10.79;76.86
75051;BME280;63628;47.656;11.310;2022-09-29T05:39:51;93279.53;;;10.68;76.89
75051;BME280;63628;47.656;11.310;2022-09-29T05:42:17;93288.22;;;10.78;77.23
75051;BME280;63628;47.656;11.310;2022-09-29T05:44:44;93285.28;;;10.80;76.64
75051;BME280;63628;47.656;11.310;2022-09-29T05:47:10;93279.53;;;10.68;76.56
75051;BME280;63628;47.656;11.310;2022-09-29T05:49:37;93272.38;;;10.68;76.76
75051;BME280;63628;47.656;11.310;2022-09-29T05:52:04;93262.28;;;10.75;76.71
75051;BME280;63628;47.656;11.310;2022-09-29T05:54:30;93287.66;;;10.87;75.88
75051;BME280;63628;47.656;11.310;2022-09-29T05:56:57;93290.31;;;10.82;75.85
75051;BME280;63628;47.656;11.310;2022-09-29T05:59:23;93303.56;;;10.82;76.55
75051;BME280;63628;47.656;11.310;2022-09-29T06:01:50;93305.44;;;10.76;76.60
75051;BME280;63628;47.656;11.310;2022-09-29T06:04:16;93300.94;;;10.76;76.59
75051;BME280;63628;47.656;11.310;2022-09-29T06:06:43;93306.47;;;10.80;76.28
75051;BME280;63628;47.656;11.310;2022-09-29T06:09:09;93298.25;;;10.82;76.10
75051;BME280;63628;47.656;11.310;2022-09-29T06:11:36;93299.31;;;10.86;75.90
75051;BME280;63628;47.656;11.310;2022-09-29T06:14:02;93310.44;;;10.77;77.05
75051;BME280;63628;47.656;11.310;2022-09-29T06:16:30;93308.06;;;10.76;76.92
75051;BME280;63628;47.656;11.310;2022-09-29T06:19:01;93297.75;;;10.74;76.69
75051;BME280;63628;47.656;11.310;2022-09-29T06:21:29;93300.41;;;10.74;76.67
75051;BME280;63628;47.656;11.310;2022-09-29T06:23:56;93290.63;;;10.70;76.79
75051;BME280;63628;47.656;11.310;2022-09-29T06:26:25;93304.09;;;10.78;76.50
75051;BME280;63628;47.656;11.310;2022-09-29T06:28:53;93300.66;;;10.78;76.43
75051;BME280;63628;47.656;11.310;2022-09-29T06:31:22;93311.50;;;10.76;76.97
75051;BME280;63628;47.656;11.310;2022-09-29T06:33:49;93308.59;;;10.78;76.83
75051;BME280;63628;47.656;11.310;2022-09-29T06:36:19;93295.13;;;10.69;76.16
75051;BME280;63628;47.656;11.310;2022-09-29T06:39:06;93314.97;;;10.72;77.08
75051;BME280;63628;47.656;11.310;2022-09-29T06:41:33;93295.16;;;10.64;77.23
75051;BME280;63628;47.656;11.310;2022-09-29T06:44:01;93301.19;;;10.75;77.06
75051;BME280;63628;47.656;11.310;2022-09-29T06:46:28;93307.28;;;10.75;76.89
75051;BME280;63628;47.656;11.310;2022-09-29T06:48:55;93307.38;;;10.25;79.10
75051;BME280;63628;47.656;11.310;2022-09-29T06:51:23;93299.66;;;10.64;77.42
75051;BME280;63628;47.656;11.310;2022-09-29T06:54:03;93296.72;;;10.70;76.67
75051;BME280;63628;47.656;11.310;2022-09-29T06:56:38;93297.22;;;10.77;76.06
75051;BME280;63628;47.656;11.310;2022-09-29T06:59:05;93292.47;;;10.74;76.72
75051;BME280;63628;47.656;11.310;2022-09-29T07:01:31;93293.53;;;10.73;77.11
75051;BME280;63628;47.656;11.310;2022-09-29T07:03:58;93288.75;;;10.75;76.27
75051;BME280;63628;47.656;11.310;2022-09-29T07:06:28;93292.19;;;10.76;77.00
75051;BME280;63628;47.656;11.310;2022-09-29T07:08:56;93285.03;;;10.76;77.03
75051;BME280;63628;47.656;11.310;2022-09-29T07:11:23;93283.72;;;10.79;76.00
75051;BME280;63628;47.656;11.310;2022-09-29T07:13:51;93285.97;;;10.21;78.33
75051;BME280;63628;47.656;11.310;2022-09-29T07:16:20;93291.78;;;10.13;80.16
75051;BME280;63628;47.656;11.310;2022-09-29T07:18:50;93291.75;;;10.33;78.99
75051;BME280;63628;47.656;11.310;2022-09-29T07:21:16;93303.09;;;9.42;83.42
75051;BME280;63628;47.656;11.310;2022-09-29T07:23:45;93302.84;;;9.44;83.55
75051;BME280;63628;47.656;11.310;2022-09-29T07:26:12;93301.03;;;10.10;80.05
75051;BME280;63628;47.656;11.310;2022-09-29T07:28:39;93292.03;;;10.27;79.19
75051;BME280;63628;47.656;11.310;2022-09-29T07:31:08;93290.19;;;10.17;79.14
75051;BME280;63628;47.656;11.310;2022-09-29T07:33:41;93294.41;;;9.62;82.45
75051;BME280;63628;47.656;11.310;2022-09-29T07:36:07;93299.41;;;9.38;83.06
75051;BME280;63628;47.656;11.310;2022-09-29T07:38:34;93290.34;;;9.09;85.25
75051;BME280;63628;47.656;11.310;2022-09-29T07:41:06;93294.97;;;9.84;80.83
75051;BME280;63628;47.656;11.310;2022-09-29T07:43:33;93293.09;;;10.36;78.70
75051;BME280;63628;47.656;11.310;2022-09-29T07:46:00;93303.16;;;10.08;80.93
75051;BME280;63628;47.656;11.310;2022-09-29T07:48:28;93309.72;;;9.45;82.92
75051;BME280;63628;47.656;11.310;2022-09-29T07:51:06;93304.91;;;9.21;83.81
75051;BME280;63628;47.656;11.310;2022-09-29T07:53:33;93298.34;;;9.29;83.98
75051;BME280;63628;47.656;11.310;2022-09-29T07:56:10;93320.53;;;9.38;83.88
75051;BME280;63628;47.656;11.310;2022-09-29T07:58:38;93304.19;;;9.57;82.09
75051;BME280;63628;47.656;11.310;2022-09-29T08:01:06;93315.13;;;9.03;83.51
75051;BME280;63628;47.656;11.310;2022-09-29T08:03:37;93312.34;;;9.35;83.44
75051;BME280;63628;47.656;11.310;2022-09-29T08:06:08;93318.16;;;9.47;82.27
75051;BME280;63628;47.656;11.310;2022-09-29T08:08:38;93320.28;;;9.65;82.59
75051;BME280;63628;47.656;11.310;2022-09-29T08:11:11;93321.59;;;9.52;81.52
75051;BME280;63628;47.656;11.310;2022-09-29T08:13:53;93325.69;;;9.03;83.88
75051;BME280;63628;47.656;11.310;2022-09-29T08:16:19;93323.66;;;9.25;82.35
75051;BME280;63628;47.656;11.310;2022-09-29T08:18:46;93331.91;;;9.59;83.25
75051;BME280;63628;47.656;11.310;2022-09-29T08:21:13;93332.69;;;9.54;81.89
75051;BME280;63628;47.656;11.310;2022-09-29T08:23:42;93328.53;;;9.89;80.98
75051;BME280;63628;47.656;11.310;2022-09-29T08:26:14;93321.91;;;10.17;79.62
75051;BME280;63628;47.656;11.310;2022-09-29T08:28:42;93329.84;;;10.07;80.06
75051;BME280;63628;47.656;11.310;2022-09-29T08:31:17;93341.72;;;10.14;80.49
75051;BME280;63628;47.656;11.310;2022-09-29T08:33:47;93343.06;;;9.97;80.99
75051;BME280;63628;47.656;11.310;2022-09-29T08:36:18;93345.63;;;9.51;80.69
75051;BME280;63628;47.656;11.310;2022-09-29T08:38:52;93354.41;;;10.07;79.66
75051;BME280;63628;47.656;11.310;2022-09-29T08:41:33;93354.44;;;10.23;78.16
75051;BME280;63628;47.656;11.310;2022-09-29T08:47:11;93350.47;;;10.35;80.16
75051;BME280;63628;47.656;11.310;2022-09-29T08:49:42;93353.63;;;10.58;81.37
75051;BME280;63628;47.656;11.310;2022-09-29T08:52:18;93359.44;;;10.39;79.63
75051;BME280;63628;47.656;11.310;2022-09-29T08:54:47;93349.38;;;10.72;81.07
75051;BME280;63628;47.656;11.310;2022-09-29T08:57:18;93347.72;;;10.86;81.38
75051;BME280;63628;47.656;11.310;2022-09-29T08:59:54;93348.78;;;11.50;80.24
75051;BME280;63628;47.656;11.310;2022-09-29T09:05:38;93362.88;;;10.60;78.48
75051;BME280;63628;47.656;11.310;2022-09-29T09:10:56;93350.19;;;10.62;78.37
75051;BME280;63628;47.656;11.310;2022-09-29T09:16:14;93353.91;;;10.56;78.77
75051;BME280;63628;47.656;11.310;2022-09-29T09:21:36;93361.25;;;10.74;77.51
75051;BME280;63628;47.656;11.310;2022-09-29T09:24:15;93365.53;;;10.60;79.01
75051;BME280;63628;47.656;11.310;2022-09-29T09:26:46;93379.78;;;9.78;78.18
75051;BME280;63628;47.656;11.310;2022-09-29T09:29:29;93384.28;;;10.08;80.47
75051;BME280;63628;47.656;11.310;2022-09-29T09:32:08;93390.38;;;10.03;77.83
75051;BME280;63628;47.656;11.310;2022-09-29T09:34:43;93370.00;;;10.09;78.21
75051;BME280;63628;47.656;11.310;2022-09-29T09:37:17;93382.22;;;10.40;79.22
75051;BME280;63628;47.656;11.310;2022-09-29T09:42:31;93378.75;;;10.30;78.18
75051;BME280;63628;47.656;11.310;2022-09-29T09:47:35;93376.28;;;9.67;80.17
75051;BME280;63628;47.656;11.310;2022-09-29T09:50:15;93372.66;;;10.14;79.28
75051;BME280;63628;47.656;11.310;2022-09-29T09:52:46;93364.19;;;10.02;79.36
75051;BME280;63628;47.656;11.310;2022-09-29T09:55:21;93383.44;;;9.72;80.43
75051;BME280;63628;47.656;11.310;2022-09-29T09:58:21;93381.09;;;9.75;80.68
75051;BME280;63628;47.656;11.310;2022-09-29T10:01:00;93368.44;;;10.33;79.61
75051;BME280;63628;47.656;11.310;2022-09-29T10:03:28;93375.59;;;10.43;77.41
75051;BME280;63628;47.656;11.310;2022-09-29T10:05:56;93380.09;;;10.42;79.68
75051;BME280;63628;47.656;11.310;2022-09-29T10:08:28;93365.28;;;10.52;79.08
75051;BME280;63628;47.656;11.310;2022-09-29T10:10:56;93368.19;;;10.60;79.15
75051;BME280;63628;47.656;11.310;2022-09-29T10:13:27;93376.88;;;10.66;79.10
75051;BME280;63628;47.656;11.310;2022-09-29T10:16:07;93382.19;;;10.56;78.56
75051;BME280;63628;47.656;11.310;2022-09-29T10:18:40;93370.00;;;9.94;79.59
75051;BME280;63628;47.656;11.310;2022-09-29T10:21:20;93371.06;;;10.13;80.50
75051;BME280;63628;47.656;11.310;2022-09-29T10:23:53;93367.38;;;10.09;79.78
75051;BME280;63628;47.656;11.310;2022-09-29T10:26:39;93384.31;;;10.38;79.23
75051;BME280;63628;47.656;11.310;2022-09-29T10:29:32;93391.19;;;10.55;79.13
75051;BME280;63628;47.656;11.310;2022-09-29T10:32:12;93392.78;;;10.56;80.69
75051;BME280;63628;47.656;11.310;2022-09-29T10:34:41;93393.31;;;10.63;80.07
75051;BME280;63628;47.656;11.310;2022-09-29T10:39:45;93393.31;;;10.53;80.88
75051;BME280;63628;47.656;11.310;2022-09-29T10:42:20;93395.16;;;10.67;79.89
75051;BME280;63628;47.656;11.310;2022-09-29T10:45:00;93395.41;;;10.71;79.98
75051;BME280;63628;47.656;11.310;2022-09-29T10:47:27;93398.56;;;10.73;80.17
75051;BME280;63628;47.656;11.310;2022-09-29T10:50:20;93399.63;;;10.72;79.61
75051;BME280;63628;47.656;11.310;2022-09-29T10:52:52;93402.53;;;10.70;79.58
75051;BME280;63628;47.656;11.310;2022-09-29T10:55:31;93393.06;;;10.54;81.30
75051;BME280;63628;47.656;11.310;2022-09-29T10:58:01;93403.63;;;10.64;79.72
75051;BME280;63628;47.656;11.310;2022-09-29T11:00:33;93408.38;;;10.72;79.63
75051;BME280;63628;47.656;11.310;2022-09-29T11:03:22;93411.00;;;10.77;79.68
75051;BME280;63628;47.656;11.310;2022-09-29T11:05:55;93407.84;;;10.60;80.87
75051;BME280;63628;47.656;11.310;2022-09-29T11:08:24;93395.94;;;10.68;81.67
75051;BME280;63628;47.656;11.310;2022-09-29T11:11:16;93415.53;;;10.52;81.22
75051;BME280;63628;47.656;11.310;2022-09-29T11:13:45;93408.38;;;10.37;81.15
75051;BME280;63628;47.656;11.310;2022-09-29T11:16:17;93412.09;;;10.61;80.60
75051;BME280;63628;47.656;11.310;2022-09-29T11:18:45;93416.81;;;10.74;80.41
75051;BME280;63628;47.656;11.310;2022-09-29T11:24:09;93421.09;;;10.50;81.00
75051;BME280;63628;47.656;11.310;2022-09-29T11:37:38;93438.25;;;10.73;80.21
75051;BME280;63628;47.656;11.310;2022-09-29T11:40:19;93436.13;;;10.80;80.18
75051;BME280;63628;47.656;11.310;2022-09-29T11:45:20;93431.34;;;10.87;79.32
75051;BME280;63628;47.656;11.310;2022-09-29T11:50:45;93437.69;;;10.96;79.97
75051;BME280;63628;47.656;11.310;2022-09-29T11:53:35;93437.69;;;10.96;79.18
75051;BME280;63628;47.656;11.310;2022-09-29T11:56:21;93431.09;;;10.89;79.75
75051;BME280;63628;47.656;11.310;2022-09-29T11:59:57;93439.53;;;10.96;79.58
75051;BME280;63628;47.656;11.310;2022-09-29T12:02:23;93436.09;;;10.95;79.38
75051;BME280;63628;47.656;11.310;2022-09-29T12:05:00;93439.28;;;10.97;78.99
75051;BME280;63628;47.656;11.310;2022-09-29T12:10:43;93434.50;;;10.99;78.95
75051;BME280;63628;47.656;11.310;2022-09-29T12:15:55;93426.03;;;10.97;78.89
75051;BME280;63628;47.656;11.310;2022-09-29T12:18:53;93429.75;;;11.01;79.14
75051;BME280;63628;47.656;11.310;2022-09-29T12:21:31;93434.25;;;11.01;79.71
75051;BME280;63628;47.656;11.310;2022-09-29T12:24:00;93431.31;;;11.02;79.91
75051;BME280;63628;47.656;11.310;2022-09-29T12:26:30;93427.09;;;11.01;78.96
75051;BME280;63628;47.656;11.310;2022-09-29T12:29:04;93428.94;;;11.01;79.25
75051;BME280;63628;47.656;11.310;2022-09-29T12:31:36;93432.41;;;11.06;79.27
75051;BME280;63628;47.656;11.310;2022-09-29T12:34:20;93436.38;;;11.09;79.40
75051;BME280;63628;47.656;11.310;2022-09-29T12:36:56;93429.75;;;11.06;79.15
75051;BME280;63628;47.656;11.310;2022-09-29T12:50:37;93436.88;;;11.11;79.35
75051;BME280;63628;47.656;11.310;2022-09-29T12:55:56;93433.72;;;11.09;78.89
75051;BME280;63628;47.656;11.310;2022-09-29T12:58:34;93444.56;;;11.13;79.56
75051;BME280;63628;47.656;11.310;2022-09-29T13:01:23;93446.97;;;11.09;79.38
75051;BME280;63628;47.656;11.310;2022-09-29T13:15:55;93457.56;;;10.78;80.47
75051;BME280;63628;47.656;11.310;2022-09-29T13:18:35;93459.94;;;11.05;79.62
75051;BME280;63628;47.656;11.310;2022-09-29T13:21:37;93464.41;;;11.15;79.46
75051;BME280;63628;47.656;11.310;2022-09-29T13:27:21;93462.06;;;10.93;80.21
75051;BME280;63628;47.656;11.310;2022-09-29T13:30:01;93460.44;;;11.02;79.59
75051;BME280;63628;47.656;11.310;2022-09-29T13:32:29;93471.03;;;11.02;78.68
75051;BME280;63628;47.656;11.310;2022-09-29T13:34:58;93450.69;;;10.67;80.43
75051;BME280;63628;47.656;11.310;2022-09-29T13:37:31;93469.19;;;10.88;80.71
75051;BME280;63628;47.656;11.310;2022-09-29T13:40:05;93468.13;;;10.99;79.78
75051;BME280;63628;47.656;11.310;2022-09-29T13:42:42;93474.75;;;11.11;78.91
75051;BME280;63628;47.656;11.310;2022-09-29T13:47:58;93475.53;;;11.12;78.61
75051;BME280;63628;47.656;11.310;2022-09-29T13:50:52;93480.81;;;11.17;78.88
75051;BME280;63628;47.656;11.310;2022-09-29T13:53:34;93491.16;;;11.19;79.05
75051;BME280;63628;47.656;11.310;2022-09-29T13:58:31;93495.91;;;11.22;79.00
75051;BME280;63628;47.656;11.310;2022-09-29T14:00:59;93496.69;;;11.22;79.43
75051;BME280;63628;47.656;11.310;2022-09-29T14:03:41;93499.88;;;11.24;78.80
75051;BME280;63628;47.656;11.310;2022-09-29T14:06:15;93492.19;;;11.23;79.33
75051;BME280;63628;47.656;11.310;2022-09-29T14:09:20;93498.28;;;11.23;79.11
75051;BME280;63628;47.656;11.310;2022-09-29T14:12:02;93496.97;;;10.95;79.07
75051;BME280;63628;47.656;11.310;2022-09-29T14:14:35;93510.47;;;11.19;78.82
75051;BME280;63628;47.656;11.310;2022-09-29T14:17:24;93506.78;;;11.15;79.44
75051;BME280;63628;47.656;11.310;2022-09-29T14:33:22;93530.59;;;11.25;79.14
75051;BME280;63628;47.656;11.310;2022-09-29T14:38:44;93532.72;;;11.28;78.51
75051;BME280;63628;47.656;11.310;2022-09-29T14:41:39;93525.28;;;11.25;78.83
75051;BME280;63628;47.656;11.310;2022-09-29T14:44:19;93524.00;;;11.18;79.20
75051;BME280;63628;47.656;11.310;2022-09-29T14:47:18;93531.94;;;11.23;79.22
75051;BME280;63628;47.656;11.310;2022-09-29T14:53:28;93527.16;;;11.30;78.71
75051;BME280;63628;47.656;11.310;2022-09-29T14:58:58;93507.59;;;10.50;79.03
75051;BME280;63628;47.656;11.310;2022-09-29T15:01:30;93525.53;;;10.37;81.79
75051;BME280;63628;47.656;11.310;2022-09-29T15:04:08;93517.09;;;10.91;80.10
75051;BME280;63628;47.656;11.310;2022-09-29T15:06:45;93535.91;;;11.20;78.90
75051;BME280;63628;47.656;11.310;2022-09-29T15:09:19;93535.63;;;11.17;78.74
75051;BME280;63628;47.656;11.310;2022-09-29T15:14:20;93533.25;;;11.25;78.80
75051;BME280;63628;47.656;11.310;2022-09-29T15:19:52;93536.16;;;11.29;78.11
75051;BME280;63628;47.656;11.310;2022-09-29T15:25:26;93527.69;;;11.27;78.10
75051;BME280;63628;47.656;11.310;2022-09-29T15:27:59;93536.41;;;11.27;78.13